createdAt,value
2024-03-23T00:00:25.557Z,2.40
2024-03-23T00:00:58.246Z,2.50
2024-03-23T00:01:30.945Z,2.40
2024-03-23T00:02:03.598Z,2.40
2024-03-23T00:02:36.275Z,2.40
2024-03-23T00:03:08.951Z,2.50
2024-03-23T00:03:41.639Z,2.50
2024-03-23T00:04:14.303Z,2.60
2024-03-23T00:04:47.016Z,2.50
2024-03-23T00:05:19.753Z,2.40
2024-03-23T00:05:52.419Z,2.20
2024-03-23T00:06:25.112Z,2.40
2024-03-23T00:06:57.816Z,2.50
2024-03-23T00:07:30.509Z,2.20
2024-03-23T00:08:03.198Z,2.40
2024-03-23T00:08:35.889Z,2.50
2024-03-23T00:09:08.573Z,2.90
2024-03-23T00:09:41.242Z,2.40
2024-03-23T00:10:13.927Z,2.40
2024-03-23T00:10:46.616Z,2.40
2024-03-23T00:11:19.295Z,2.50
2024-03-23T00:11:51.979Z,2.70
2024-03-23T00:12:24.822Z,2.50
2024-03-23T00:12:57.526Z,2.60
2024-03-23T00:13:30.287Z,2.40
2024-03-23T00:14:02.962Z,2.40
2024-03-23T00:14:34.064Z,2.50
2024-03-23T00:15:06.761Z,2.30
2024-03-23T00:15:39.471Z,2.50
2024-03-23T00:16:12.134Z,2.70
2024-03-23T00:16:44.806Z,2.60
2024-03-23T00:17:17.481Z,2.60
2024-03-23T00:17:50.180Z,2.80
2024-03-23T00:18:22.853Z,2.50
2024-03-23T00:18:55.589Z,2.60
2024-03-23T00:19:28.241Z,2.70
2024-03-23T00:20:00.948Z,2.50
2024-03-23T00:20:33.626Z,2.80
2024-03-23T00:21:06.318Z,2.60
2024-03-23T00:21:37.390Z,2.30
2024-03-23T00:22:10.119Z,2.80
2024-03-23T00:22:42.770Z,2.60
2024-03-23T00:23:15.441Z,2.50
2024-03-23T00:23:48.114Z,2.60
2024-03-23T00:24:20.789Z,2.90
2024-03-23T00:24:53.485Z,2.90
2024-03-23T00:25:26.186Z,2.80
2024-03-23T00:25:58.866Z,3.20
2024-03-23T00:26:31.555Z,2.80
2024-03-23T00:27:04.240Z,3.00
2024-03-23T00:27:36.929Z,3.00
2024-03-23T00:28:09.622Z,2.70
2024-03-23T00:28:42.291Z,3.20
2024-03-23T00:29:14.973Z,3.00
2024-03-23T00:29:47.641Z,2.80
2024-03-23T00:30:20.332Z,2.90
2024-03-23T00:30:53.009Z,2.70
2024-03-23T00:31:25.685Z,2.70
2024-03-23T00:31:58.462Z,3.30
2024-03-23T00:32:31.178Z,2.80
2024-03-23T00:33:03.823Z,3.00
2024-03-23T00:33:36.510Z,3.10
2024-03-23T00:34:09.205Z,3.00
2024-03-23T00:34:41.903Z,3.00
2024-03-23T00:35:14.583Z,2.90
2024-03-23T00:35:47.268Z,3.00
2024-03-23T00:36:19.961Z,2.90
2024-03-23T00:36:52.649Z,2.80
2024-03-23T00:37:25.330Z,2.60
2024-03-23T00:37:58.128Z,2.70
2024-03-23T00:38:30.778Z,3.00
2024-03-23T00:39:03.475Z,2.80
2024-03-23T00:39:36.143Z,2.80
2024-03-23T00:40:08.850Z,2.80
2024-03-23T00:40:41.499Z,2.90
2024-03-23T00:41:14.171Z,2.60
2024-03-23T00:41:46.874Z,2.60
2024-03-23T00:42:19.572Z,2.80
2024-03-23T00:42:52.238Z,2.80
2024-03-23T00:43:24.931Z,3.20
2024-03-23T00:43:57.745Z,2.70
2024-03-23T00:44:30.403Z,2.90
2024-03-23T00:45:03.072Z,2.90
2024-03-23T00:45:35.797Z,2.70
2024-03-23T00:46:08.470Z,2.60
2024-03-23T00:46:41.177Z,3.10
2024-03-23T00:47:13.874Z,2.80
2024-03-23T00:47:46.549Z,2.90
2024-03-23T00:48:19.226Z,3.00
2024-03-23T00:48:51.923Z,3.00
2024-03-23T00:49:24.594Z,2.50
2024-03-23T00:49:57.248Z,3.30
2024-03-23T00:50:29.949Z,2.60
2024-03-23T00:51:02.629Z,2.80
2024-03-23T00:51:35.302Z,3.10
2024-03-23T00:52:07.978Z,2.60
2024-03-23T00:52:40.666Z,3.20
2024-03-23T00:53:13.362Z,2.60
2024-03-23T00:53:46.043Z,2.90
2024-03-23T00:54:18.745Z,2.90
2024-03-23T00:54:51.401Z,2.90
2024-03-23T00:55:24.090Z,2.80
2024-03-23T00:55:56.760Z,2.50
2024-03-23T00:56:29.439Z,2.70
2024-03-23T00:57:02.115Z,3.10
2024-03-23T00:57:34.818Z,3.10
2024-03-23T00:58:07.483Z,2.80
2024-03-23T00:58:40.163Z,2.60
2024-03-23T00:59:12.829Z,2.90
2024-03-23T00:59:45.520Z,2.70
2024-03-23T01:00:18.234Z,2.70
2024-03-23T01:00:50.933Z,2.80
2024-03-23T01:01:23.595Z,2.80
2024-03-23T01:01:56.288Z,2.40
2024-03-23T01:02:28.964Z,3.00
2024-03-23T01:03:01.646Z,2.60
2024-03-23T01:03:34.358Z,3.10
2024-03-23T01:04:07.053Z,2.90
2024-03-23T01:04:39.745Z,2.80
2024-03-23T01:05:12.425Z,2.60
2024-03-23T01:05:45.182Z,2.60
2024-03-23T01:06:17.818Z,2.70
2024-03-23T01:06:50.510Z,2.70
2024-03-23T01:07:23.195Z,3.00
2024-03-23T01:07:55.888Z,2.70
2024-03-23T01:08:28.566Z,2.40
2024-03-23T01:09:01.235Z,2.50
2024-03-23T01:09:33.920Z,2.70
2024-03-23T01:10:06.590Z,2.70
2024-03-23T01:10:39.304Z,2.60
2024-03-23T01:11:11.968Z,2.40
2024-03-23T01:11:44.642Z,2.80
2024-03-23T01:12:17.330Z,2.70
2024-03-23T01:12:50.021Z,2.60
2024-03-23T01:13:22.687Z,2.90
2024-03-23T01:13:55.375Z,2.40
2024-03-23T01:14:28.048Z,2.50
2024-03-23T01:15:00.769Z,2.60
2024-03-23T01:15:33.475Z,2.80
2024-03-23T01:16:06.159Z,2.30
2024-03-23T01:16:38.824Z,2.40
2024-03-23T01:17:11.512Z,2.50
2024-03-23T01:17:44.204Z,2.70
2024-03-23T01:18:16.882Z,2.60
2024-03-23T01:18:49.560Z,2.50
2024-03-23T01:19:22.237Z,2.60
2024-03-23T01:19:54.958Z,2.50
2024-03-23T01:20:27.633Z,2.40
2024-03-23T01:21:00.350Z,2.60
2024-03-23T01:21:33.006Z,2.50
2024-03-23T01:22:05.729Z,2.80
2024-03-23T01:22:38.408Z,2.40
2024-03-23T01:23:11.106Z,2.40
2024-03-23T01:23:43.764Z,2.60
2024-03-23T01:24:16.554Z,2.30
2024-03-23T01:24:49.183Z,3.00
2024-03-23T01:25:21.889Z,2.50
2024-03-23T01:25:54.555Z,2.40
2024-03-23T01:26:27.246Z,2.60
2024-03-23T01:26:59.912Z,2.50
2024-03-23T01:27:32.608Z,2.60
2024-03-23T01:28:05.304Z,2.70
2024-03-23T01:28:37.973Z,2.30
2024-03-23T01:29:10.653Z,2.60
2024-03-23T01:29:43.373Z,2.40
2024-03-23T01:30:16.054Z,2.30
2024-03-23T01:30:48.728Z,2.30
2024-03-23T01:31:21.417Z,2.50
2024-03-23T01:31:54.090Z,2.50
2024-03-23T01:32:26.793Z,2.40
2024-03-23T01:32:59.491Z,2.30
2024-03-23T01:33:32.174Z,2.50
2024-03-23T01:34:04.840Z,2.70
2024-03-23T01:34:37.548Z,2.40
2024-03-23T01:35:10.304Z,2.30
2024-03-23T01:35:42.934Z,2.60
2024-03-23T01:36:15.616Z,2.50
2024-03-23T01:36:48.328Z,2.20
2024-03-23T01:37:20.980Z,2.50
2024-03-23T01:37:53.661Z,2.70
2024-03-23T01:38:26.346Z,2.60
2024-03-23T01:38:59.017Z,2.60
2024-03-23T01:39:31.687Z,2.70
2024-03-23T01:40:04.372Z,2.70
2024-03-23T01:40:37.090Z,2.60
2024-03-23T01:41:09.754Z,2.70
2024-03-23T01:41:42.436Z,2.70
2024-03-23T01:42:15.173Z,2.60
2024-03-23T01:42:47.913Z,3.00
2024-03-23T01:43:20.632Z,2.60
2024-03-23T01:43:53.331Z,2.60
2024-03-23T01:44:26.006Z,2.40
2024-03-23T01:44:58.685Z,2.30
2024-03-23T01:45:31.381Z,2.30
2024-03-23T01:46:04.101Z,2.80
2024-03-23T01:46:36.752Z,2.40
2024-03-23T01:47:09.435Z,2.90
2024-03-23T01:47:42.114Z,2.50
2024-03-23T01:48:14.809Z,2.50
2024-03-23T01:48:47.496Z,2.70
2024-03-23T01:49:20.172Z,2.40
2024-03-23T01:49:52.850Z,2.50
2024-03-23T01:50:25.672Z,2.60
2024-03-23T01:50:58.339Z,2.40
2024-03-23T01:51:31.014Z,2.50
2024-03-23T01:52:03.691Z,2.60
2024-03-23T01:52:36.412Z,2.50
2024-03-23T01:53:09.058Z,2.50
2024-03-23T01:53:41.743Z,2.70
2024-03-23T01:54:14.420Z,2.50
2024-03-23T01:54:47.095Z,2.50
2024-03-23T01:55:19.795Z,2.50
2024-03-23T01:55:52.491Z,2.50
2024-03-23T01:56:25.159Z,2.90
2024-03-23T01:56:57.858Z,2.50
2024-03-23T01:57:30.556Z,2.30
2024-03-23T01:58:03.227Z,2.40
2024-03-23T01:58:35.912Z,2.60
2024-03-23T01:59:08.599Z,2.80
2024-03-23T01:59:41.284Z,2.70
2024-03-23T02:00:14.007Z,2.90
2024-03-23T02:00:46.684Z,2.50
2024-03-23T02:01:19.361Z,2.80
2024-03-23T02:01:52.040Z,2.90
2024-03-23T02:02:24.727Z,2.90
2024-03-23T02:02:57.389Z,2.90
2024-03-23T02:03:30.077Z,3.00
2024-03-23T02:04:02.760Z,2.50
2024-03-23T02:04:35.454Z,2.90
2024-03-23T02:05:08.138Z,2.70
2024-03-23T02:05:40.827Z,2.60
2024-03-23T02:06:13.493Z,2.70
2024-03-23T02:06:46.169Z,2.80
2024-03-23T02:07:18.855Z,2.90
2024-03-23T02:07:51.537Z,2.30
2024-03-23T02:08:24.229Z,2.70
2024-03-23T02:08:56.891Z,2.80
2024-03-23T02:09:29.583Z,2.50
2024-03-23T02:10:02.254Z,2.40
2024-03-23T02:10:34.968Z,2.80
2024-03-23T02:11:07.653Z,2.70
2024-03-23T02:11:40.337Z,2.60
2024-03-23T02:12:13.002Z,2.90
2024-03-23T02:12:45.731Z,2.60
2024-03-23T02:13:18.363Z,2.50
2024-03-23T02:13:51.057Z,2.70
2024-03-23T02:14:23.743Z,3.00
2024-03-23T02:14:56.503Z,2.90
2024-03-23T02:15:29.165Z,2.50
2024-03-23T02:16:01.850Z,2.20
2024-03-23T02:16:34.508Z,2.60
2024-03-23T02:17:07.207Z,2.60
2024-03-23T02:17:39.894Z,2.50
2024-03-23T02:18:12.555Z,2.70
2024-03-23T02:18:45.251Z,2.40
2024-03-23T02:19:17.925Z,2.90
2024-03-23T02:19:50.637Z,2.30
2024-03-23T02:20:23.316Z,2.70
2024-03-23T02:20:56.012Z,2.90
2024-03-23T02:21:28.684Z,2.50
2024-03-23T02:22:01.349Z,2.70
2024-03-23T02:22:34.023Z,2.80
2024-03-23T02:23:06.711Z,2.60
2024-03-23T02:23:39.389Z,2.60
2024-03-23T02:24:12.053Z,2.50
2024-03-23T02:24:44.739Z,2.60
2024-03-23T02:25:17.412Z,2.80
2024-03-23T02:25:50.089Z,2.90
2024-03-23T02:26:22.778Z,2.60
2024-03-23T02:26:55.451Z,2.50
2024-03-23T02:27:28.151Z,2.60
2024-03-23T02:27:59.239Z,2.30
2024-03-23T02:28:31.932Z,3.00
2024-03-23T02:29:04.582Z,2.30
2024-03-23T02:29:37.259Z,2.30
2024-03-23T02:30:08.345Z,2.90
2024-03-23T02:30:41.053Z,2.70
2024-03-23T02:31:13.725Z,2.70
2024-03-23T02:31:46.389Z,2.90
2024-03-23T02:32:17.493Z,2.50
2024-03-23T02:32:50.177Z,2.90
2024-03-23T02:33:22.876Z,2.80
2024-03-23T02:33:55.547Z,2.70
2024-03-23T02:34:28.224Z,2.60
2024-03-23T02:35:00.913Z,2.70
2024-03-23T02:35:33.602Z,2.60
2024-03-23T02:36:06.312Z,2.80
2024-03-23T02:36:38.968Z,2.80
2024-03-23T02:37:11.641Z,2.60
2024-03-23T02:37:44.321Z,2.60
2024-03-23T02:38:17.024Z,2.70
2024-03-23T02:38:49.695Z,2.70
2024-03-23T02:39:22.427Z,2.70
2024-03-23T02:39:55.056Z,2.50
2024-03-23T02:40:27.761Z,2.80
2024-03-23T02:41:00.436Z,2.80
2024-03-23T02:41:33.132Z,2.70
2024-03-23T02:42:05.805Z,2.80
2024-03-23T02:42:38.483Z,3.00
2024-03-23T02:43:11.179Z,2.70
2024-03-23T02:43:43.849Z,2.90
2024-03-23T02:44:16.519Z,2.60
2024-03-23T02:44:49.334Z,3.10
2024-03-23T02:45:22.048Z,3.10
2024-03-23T02:45:54.724Z,2.80
2024-03-23T02:46:27.448Z,2.60
2024-03-23T02:47:00.134Z,2.80
2024-03-23T02:47:32.798Z,2.70
2024-03-23T02:48:05.472Z,3.00
2024-03-23T02:48:38.156Z,3.20
2024-03-23T02:49:10.815Z,3.00
2024-03-23T02:49:43.508Z,3.00
2024-03-23T02:50:16.196Z,2.90
2024-03-23T02:50:48.999Z,3.00
2024-03-23T02:51:21.670Z,2.90
2024-03-23T02:51:54.338Z,2.90
2024-03-23T02:52:27.006Z,2.90
2024-03-23T02:52:59.689Z,2.80
2024-03-23T02:53:32.390Z,2.90
2024-03-23T02:54:05.079Z,2.90
2024-03-23T02:54:37.756Z,2.90
2024-03-23T02:55:10.459Z,2.80
2024-03-23T02:55:43.149Z,3.00
2024-03-23T02:56:15.859Z,2.80
2024-03-23T02:56:48.542Z,2.90
2024-03-23T02:57:21.211Z,3.00
2024-03-23T02:57:53.899Z,3.20
2024-03-23T02:58:26.575Z,2.80
2024-03-23T02:58:59.248Z,3.30
2024-03-23T02:59:30.369Z,3.20
2024-03-23T03:00:03.070Z,2.90
2024-03-23T03:00:35.750Z,3.00
2024-03-23T03:01:08.442Z,3.10
2024-03-23T03:01:41.112Z,2.50
2024-03-23T03:02:13.787Z,3.20
2024-03-23T03:02:46.460Z,3.10
2024-03-23T03:03:19.126Z,2.80
2024-03-23T03:03:51.834Z,3.50
2024-03-23T03:04:24.537Z,3.00
2024-03-23T03:04:57.219Z,3.10
2024-03-23T03:05:29.918Z,2.80
2024-03-23T03:06:02.600Z,3.10
2024-03-23T03:06:33.695Z,3.00
2024-03-23T03:07:06.359Z,3.10
2024-03-23T03:07:39.042Z,3.20
2024-03-23T03:08:11.719Z,2.80
2024-03-23T03:08:42.786Z,3.00
2024-03-23T03:09:15.526Z,2.70
2024-03-23T03:09:48.196Z,2.80
2024-03-23T03:10:20.881Z,2.80
2024-03-23T03:10:53.556Z,2.90
2024-03-23T03:11:26.242Z,3.10
2024-03-23T03:11:58.934Z,3.00
2024-03-23T03:12:31.618Z,2.70
2024-03-23T03:13:04.316Z,2.80
2024-03-23T03:13:36.974Z,3.10
2024-03-23T03:14:09.653Z,3.00
2024-03-23T03:14:42.334Z,3.20
2024-03-23T03:15:15.026Z,3.20
2024-03-23T03:15:47.718Z,3.00
2024-03-23T03:16:20.408Z,3.10
2024-03-23T03:16:53.057Z,3.40
2024-03-23T03:17:25.751Z,2.90
2024-03-23T03:17:56.822Z,3.10
2024-03-23T03:18:29.519Z,2.80
2024-03-23T03:19:02.188Z,2.60
2024-03-23T03:19:34.868Z,3.40
2024-03-23T03:20:07.601Z,3.10
2024-03-23T03:20:40.280Z,3.00
2024-03-23T03:21:12.963Z,2.80
2024-03-23T03:21:45.654Z,3.20
2024-03-23T03:22:18.327Z,3.10
2024-03-23T03:22:50.989Z,3.10
2024-03-23T03:23:23.670Z,3.10
2024-03-23T03:23:56.365Z,2.90
2024-03-23T03:24:29.057Z,3.00
2024-03-23T03:25:01.727Z,3.00
2024-03-23T03:25:34.469Z,3.10
2024-03-23T03:26:05.556Z,3.00
2024-03-23T03:26:38.231Z,3.10
2024-03-23T03:27:10.914Z,3.50
2024-03-23T03:27:43.579Z,3.20
2024-03-23T03:28:16.262Z,3.10
2024-03-23T03:28:48.954Z,3.50
2024-03-23T03:29:21.634Z,3.10
2024-03-23T03:29:54.298Z,3.20
2024-03-23T03:30:27.109Z,3.30
2024-03-23T03:30:59.765Z,3.30
2024-03-23T03:31:32.451Z,3.20
2024-03-23T03:32:05.125Z,3.10
2024-03-23T03:32:37.825Z,3.10
2024-03-23T03:33:10.506Z,3.30
2024-03-23T03:33:43.188Z,3.30
2024-03-23T03:34:15.852Z,3.40
2024-03-23T03:34:48.525Z,3.50
2024-03-23T03:35:21.215Z,3.60
2024-03-23T03:35:53.914Z,3.10
2024-03-23T03:36:26.591Z,3.00
2024-03-23T03:36:59.288Z,2.90
2024-03-23T03:37:31.959Z,3.20
2024-03-23T03:38:04.666Z,3.50
2024-03-23T03:38:37.316Z,3.60
2024-03-23T03:39:10.008Z,3.50
2024-03-23T03:39:42.680Z,3.20
2024-03-23T03:40:15.377Z,3.30
2024-03-23T03:40:48.041Z,3.40
2024-03-23T03:41:20.719Z,3.10
2024-03-23T03:41:53.388Z,3.20
2024-03-23T03:42:26.172Z,3.60
2024-03-23T03:43:01.259Z,3.50
2024-03-23T03:43:28.523Z,3.10
2024-03-23T03:44:01.215Z,3.30
2024-03-23T03:44:33.885Z,3.50
2024-03-23T03:45:06.570Z,3.30
2024-03-23T03:45:39.251Z,3.40
2024-03-23T03:46:11.919Z,3.20
2024-03-23T03:46:44.606Z,3.20
2024-03-23T03:47:17.309Z,3.20
2024-03-23T03:47:49.992Z,3.30
2024-03-23T03:48:22.667Z,3.10
2024-03-23T03:48:55.341Z,3.20
2024-03-23T03:49:28.017Z,3.10
2024-03-23T03:50:00.714Z,3.30
2024-03-23T03:50:33.422Z,3.10
2024-03-23T03:51:06.123Z,3.30
2024-03-23T03:51:38.777Z,2.90
2024-03-23T03:52:11.473Z,2.90
2024-03-23T03:52:44.136Z,3.00
2024-03-23T03:53:16.817Z,3.10
2024-03-23T03:53:49.509Z,2.90
2024-03-23T03:54:22.179Z,3.30
2024-03-23T03:54:54.838Z,3.00
2024-03-23T03:55:27.542Z,3.00
2024-03-23T03:56:00.219Z,3.10
2024-03-23T03:56:32.893Z,2.70
2024-03-23T03:57:05.573Z,2.60
2024-03-23T03:57:38.261Z,2.70
2024-03-23T03:58:10.921Z,2.40
2024-03-23T03:58:43.611Z,2.50
2024-03-23T03:59:16.306Z,2.30
2024-03-23T03:59:48.973Z,2.40
2024-03-23T04:00:21.661Z,2.30
2024-03-23T04:00:54.350Z,2.00
2024-03-23T04:01:27.025Z,2.20
2024-03-23T04:01:59.686Z,2.10
2024-03-23T04:02:32.373Z,2.00
2024-03-23T04:03:05.052Z,2.30
2024-03-23T04:03:37.728Z,2.30
2024-03-23T04:04:10.403Z,2.30
2024-03-23T04:04:43.070Z,1.90
2024-03-23T04:05:15.915Z,1.70
2024-03-23T04:05:48.595Z,1.80
2024-03-23T04:06:21.291Z,1.80
2024-03-23T04:06:53.963Z,1.70
2024-03-23T04:07:26.663Z,1.70
2024-03-23T04:07:59.326Z,1.60
2024-03-23T04:08:32.001Z,1.50
2024-03-23T04:09:04.707Z,1.60
2024-03-23T04:09:37.377Z,2.00
2024-03-23T04:10:10.043Z,1.50
2024-03-23T04:10:42.739Z,1.80
2024-03-23T04:11:15.416Z,1.80
2024-03-23T04:11:48.196Z,1.90
2024-03-23T04:12:20.863Z,1.60
2024-03-23T04:12:53.527Z,2.00
2024-03-23T04:13:26.198Z,1.90
2024-03-23T04:13:58.876Z,1.70
2024-03-23T04:14:31.572Z,1.80
2024-03-23T04:15:04.247Z,1.80
2024-03-23T04:15:36.926Z,1.80
2024-03-23T04:16:09.614Z,1.70
2024-03-23T04:16:42.299Z,1.70
2024-03-23T04:17:15.020Z,2.00
2024-03-23T04:17:47.659Z,2.10
2024-03-23T04:18:20.327Z,2.20
2024-03-23T04:18:53.003Z,2.30
2024-03-23T04:19:25.836Z,1.70
2024-03-23T04:19:58.477Z,1.80
2024-03-23T04:20:31.170Z,1.90
2024-03-23T04:21:03.885Z,1.90
2024-03-23T04:21:36.554Z,1.90
2024-03-23T04:22:09.232Z,1.80
2024-03-23T04:22:41.919Z,1.90
2024-03-23T04:23:14.584Z,1.80
2024-03-23T04:23:47.280Z,2.00
2024-03-23T04:24:19.980Z,2.00
2024-03-23T04:24:52.659Z,2.00
2024-03-23T04:25:25.337Z,2.00
2024-03-23T04:25:58.026Z,1.90
2024-03-23T04:26:30.710Z,2.00
2024-03-23T04:27:03.385Z,2.30
2024-03-23T04:27:36.063Z,1.80
2024-03-23T04:28:08.766Z,2.10
2024-03-23T04:28:41.423Z,2.00
2024-03-23T04:29:14.098Z,2.00
2024-03-23T04:29:46.786Z,1.90
2024-03-23T04:30:19.476Z,1.90
2024-03-23T04:30:52.166Z,2.10
2024-03-23T04:31:24.854Z,2.40
2024-03-23T04:31:57.538Z,2.00
2024-03-23T04:32:30.198Z,2.00
2024-03-23T04:33:02.873Z,1.80
2024-03-23T04:33:35.546Z,2.00
2024-03-23T04:34:08.228Z,2.00
2024-03-23T04:34:40.930Z,2.10
2024-03-23T04:35:13.610Z,1.80
2024-03-23T04:35:46.268Z,2.00
2024-03-23T04:36:18.951Z,1.80
2024-03-23T04:36:51.626Z,1.90
2024-03-23T04:37:24.319Z,2.00
2024-03-23T04:37:56.998Z,1.80
2024-03-23T04:38:29.665Z,2.20
2024-03-23T04:39:02.327Z,1.80
2024-03-23T04:39:35.014Z,1.60
2024-03-23T04:40:07.693Z,1.50
2024-03-23T04:40:40.387Z,1.80
2024-03-23T04:41:13.067Z,1.50
2024-03-23T04:41:45.774Z,1.70
2024-03-23T04:42:18.459Z,2.00
2024-03-23T04:42:51.107Z,1.50
2024-03-23T04:43:23.792Z,1.30
2024-03-23T04:43:56.485Z,1.30
2024-03-23T04:44:29.157Z,1.30
2024-03-23T04:45:01.846Z,1.60
2024-03-23T04:45:34.567Z,1.40
2024-03-23T04:46:07.255Z,1.50
2024-03-23T04:46:39.944Z,1.60
2024-03-23T04:47:12.631Z,1.50
2024-03-23T04:47:45.305Z,1.60
2024-03-23T04:48:17.994Z,1.50
2024-03-23T04:48:50.669Z,1.30
2024-03-23T04:49:23.336Z,1.60
2024-03-23T04:49:56.026Z,1.50
2024-03-23T04:50:28.720Z,1.50
2024-03-23T04:51:01.385Z,1.40
2024-03-23T04:51:34.061Z,1.60
2024-03-23T04:52:06.747Z,1.40
2024-03-23T04:52:39.437Z,1.50
2024-03-23T04:53:12.115Z,1.50
2024-03-23T04:53:44.778Z,1.40
2024-03-23T04:54:17.451Z,1.60
2024-03-23T04:54:50.139Z,1.60
2024-03-23T04:55:22.821Z,1.60
2024-03-23T04:55:55.493Z,1.40
2024-03-23T04:56:28.174Z,1.40
2024-03-23T04:57:00.861Z,1.30
2024-03-23T04:57:33.538Z,1.10
2024-03-23T04:58:06.220Z,1.60
2024-03-23T04:58:38.894Z,1.30
2024-03-23T04:59:11.590Z,1.40
2024-03-23T04:59:44.305Z,1.20
2024-03-23T05:00:16.991Z,1.30
2024-03-23T05:00:49.684Z,1.40
2024-03-23T05:01:22.357Z,1.30
2024-03-23T05:01:55.085Z,1.30
2024-03-23T05:02:27.752Z,1.20
2024-03-23T05:03:00.460Z,1.50
2024-03-23T05:03:33.136Z,1.60
2024-03-23T05:04:05.785Z,1.20
2024-03-23T05:04:38.495Z,1.50
2024-03-23T05:05:11.164Z,1.30
2024-03-23T05:05:43.856Z,1.20
2024-03-23T05:06:16.549Z,1.40
2024-03-23T05:06:49.237Z,1.50
2024-03-23T05:07:21.919Z,1.30
2024-03-23T05:07:54.605Z,1.40
2024-03-23T05:08:27.292Z,1.60
2024-03-23T05:08:59.962Z,1.50
2024-03-23T05:09:32.631Z,1.20
2024-03-23T05:10:05.298Z,1.40
2024-03-23T05:10:37.996Z,1.30
2024-03-23T05:11:10.665Z,1.60
2024-03-23T05:11:43.372Z,1.50
2024-03-23T05:12:16.089Z,1.50
2024-03-23T05:12:48.767Z,1.30
2024-03-23T05:13:21.453Z,1.40
2024-03-23T05:13:54.147Z,1.50
2024-03-23T05:14:25.211Z,1.50
2024-03-23T05:14:57.897Z,1.70
2024-03-23T05:15:30.639Z,1.20
2024-03-23T05:16:03.281Z,1.30
2024-03-23T05:16:35.967Z,1.30
2024-03-23T05:17:08.661Z,1.70
2024-03-23T05:17:41.311Z,1.50
2024-03-23T05:18:13.992Z,1.60
2024-03-23T05:18:46.790Z,1.30
2024-03-23T05:19:19.471Z,1.40
2024-03-23T05:19:50.589Z,1.30
2024-03-23T05:20:23.289Z,1.60
2024-03-23T05:20:55.952Z,1.50
2024-03-23T05:21:28.640Z,1.30
2024-03-23T05:22:01.304Z,1.20
2024-03-23T05:22:33.978Z,1.30
2024-03-23T05:23:06.657Z,1.40
2024-03-23T05:23:39.356Z,1.20
2024-03-23T05:24:12.024Z,1.40
2024-03-23T05:24:44.714Z,1.40
2024-03-23T05:25:17.441Z,1.70
2024-03-23T05:25:50.153Z,1.10
2024-03-23T05:26:22.848Z,1.40
2024-03-23T05:26:55.507Z,1.30
2024-03-23T05:27:28.197Z,1.50
2024-03-23T05:28:00.891Z,1.50
2024-03-23T05:28:33.550Z,1.30
2024-03-23T05:29:06.239Z,1.40
2024-03-23T05:29:38.930Z,1.40
2024-03-23T05:30:11.614Z,1.20
2024-03-23T05:30:44.321Z,1.30
2024-03-23T05:31:17.027Z,1.30
2024-03-23T05:31:49.826Z,1.40
2024-03-23T05:32:22.473Z,1.50
2024-03-23T05:32:55.212Z,1.20
2024-03-23T05:33:27.891Z,1.40
2024-03-23T05:34:00.577Z,1.30
2024-03-23T05:34:33.263Z,1.60
2024-03-23T05:35:05.922Z,1.30
2024-03-23T05:35:38.622Z,1.40
2024-03-23T05:36:11.319Z,1.30
2024-03-23T05:36:43.999Z,1.70
2024-03-23T05:37:16.654Z,1.40
2024-03-23T05:37:49.463Z,1.60
2024-03-23T05:38:22.300Z,1.40
2024-03-23T05:38:55.008Z,1.50
2024-03-23T05:39:27.747Z,1.60
2024-03-23T05:40:00.409Z,1.80
2024-03-23T05:40:33.110Z,1.70
2024-03-23T05:41:05.771Z,1.50
2024-03-23T05:41:38.464Z,1.50
2024-03-23T05:42:13.820Z,1.60
2024-03-23T05:42:41.519Z,1.80
2024-03-23T05:43:14.186Z,1.70
2024-03-23T05:43:46.880Z,1.40
2024-03-23T05:44:19.562Z,1.70
2024-03-23T05:44:52.220Z,1.80
2024-03-23T05:45:24.905Z,1.80
2024-03-23T05:45:57.596Z,1.50
2024-03-23T05:46:30.269Z,1.70
2024-03-23T05:47:02.979Z,1.60
2024-03-23T05:47:35.651Z,1.50
2024-03-23T05:48:08.314Z,1.70
2024-03-23T05:48:40.991Z,1.80
2024-03-23T05:49:13.668Z,1.80
2024-03-23T05:49:46.419Z,1.80
2024-03-23T05:50:19.146Z,1.60
2024-03-23T05:50:51.811Z,2.00
2024-03-23T05:51:24.463Z,2.00
2024-03-23T05:51:57.153Z,1.90
2024-03-23T05:52:29.836Z,1.70
2024-03-23T05:53:02.511Z,1.80
2024-03-23T05:53:35.179Z,2.00
2024-03-23T05:54:07.892Z,1.80
2024-03-23T05:54:40.563Z,1.80
2024-03-23T05:55:13.222Z,1.80
2024-03-23T05:55:46.066Z,1.80
2024-03-23T05:56:18.828Z,1.90
2024-03-23T05:56:51.517Z,1.90
2024-03-23T05:57:24.214Z,2.10
2024-03-23T05:57:56.923Z,1.70
2024-03-23T05:58:29.604Z,1.70
2024-03-23T05:59:02.279Z,1.80
2024-03-23T05:59:34.960Z,1.70
2024-03-23T06:00:07.636Z,1.80
2024-03-23T06:00:40.466Z,1.90
2024-03-23T06:01:13.291Z,2.10
2024-03-23T06:01:46.024Z,1.90
2024-03-23T06:02:18.690Z,1.90
2024-03-23T06:02:51.370Z,2.10
2024-03-23T06:03:24.211Z,2.10
2024-03-23T06:03:50.722Z,2.10
2024-03-23T06:04:23.387Z,1.90
2024-03-23T06:04:56.076Z,1.90
2024-03-23T06:05:28.790Z,1.90
2024-03-23T06:06:01.468Z,2.00
2024-03-23T06:06:34.156Z,1.90
2024-03-23T06:07:06.804Z,2.10
2024-03-23T06:07:39.490Z,1.70
2024-03-23T06:08:12.181Z,1.90
2024-03-23T06:08:44.877Z,2.10
2024-03-23T06:09:17.567Z,1.80
2024-03-23T06:09:50.248Z,1.70
2024-03-23T06:10:22.915Z,2.00
2024-03-23T06:10:55.601Z,1.80
2024-03-23T06:11:28.271Z,1.90
2024-03-23T06:12:00.951Z,1.80
2024-03-23T06:12:33.670Z,2.20
2024-03-23T06:13:06.355Z,1.80
2024-03-23T06:13:39.031Z,1.80
2024-03-23T06:14:11.724Z,2.00
2024-03-23T06:14:44.407Z,1.90
2024-03-23T06:15:17.068Z,1.90
2024-03-23T06:15:49.770Z,1.90
2024-03-23T06:16:22.475Z,1.80
2024-03-23T06:16:55.161Z,2.10
2024-03-23T06:17:27.914Z,2.10
2024-03-23T06:17:58.949Z,2.10
2024-03-23T06:18:31.631Z,1.90
2024-03-23T06:19:04.301Z,2.00
2024-03-23T06:19:36.997Z,2.00
2024-03-23T06:20:09.699Z,1.90
2024-03-23T06:20:42.375Z,2.30
2024-03-23T06:21:15.054Z,2.30
2024-03-23T06:21:47.753Z,2.00
2024-03-23T06:22:20.511Z,2.00
2024-03-23T06:22:53.262Z,2.00
2024-03-23T06:23:26.003Z,2.00
2024-03-23T06:23:58.743Z,2.10
2024-03-23T06:24:31.417Z,2.20
2024-03-23T06:25:04.072Z,2.20
2024-03-23T06:25:36.766Z,2.40
2024-03-23T06:26:09.449Z,2.40
2024-03-23T06:26:42.114Z,2.40
2024-03-23T06:27:14.784Z,2.30
2024-03-23T06:27:47.482Z,2.50
2024-03-23T06:28:20.149Z,2.30
2024-03-23T06:28:52.834Z,2.40
2024-03-23T06:29:25.518Z,2.30
2024-03-23T06:29:58.176Z,2.50
2024-03-23T06:30:30.973Z,2.40
2024-03-23T06:31:03.642Z,2.50
2024-03-23T06:31:36.323Z,2.10
2024-03-23T06:32:09.016Z,2.10
2024-03-23T06:32:41.682Z,2.30
2024-03-23T06:33:14.387Z,2.00
2024-03-23T06:33:47.101Z,2.10
2024-03-23T06:34:19.773Z,2.10
2024-03-23T06:34:52.474Z,2.00
2024-03-23T06:35:25.165Z,2.20
2024-03-23T06:35:57.856Z,2.20
2024-03-23T06:36:30.535Z,2.00
2024-03-23T06:37:03.199Z,2.30
2024-03-23T06:37:35.897Z,2.00
2024-03-23T06:38:08.584Z,2.10
2024-03-23T06:38:41.255Z,2.00
2024-03-23T06:39:13.927Z,2.00
2024-03-23T06:39:46.602Z,4.30
2024-03-23T06:40:19.281Z,7.30
2024-03-23T06:40:51.944Z,5.90
2024-03-23T06:41:27.018Z,5.60
2024-03-23T06:41:53.253Z,3.60
2024-03-23T06:42:25.920Z,3.60
2024-03-23T06:42:58.618Z,3.00
2024-03-23T06:43:29.712Z,2.40
2024-03-23T06:44:02.405Z,2.30
2024-03-23T06:44:35.080Z,2.10
2024-03-23T06:45:07.758Z,2.20
2024-03-23T06:45:40.460Z,2.20
2024-03-23T06:46:13.117Z,2.60
2024-03-23T06:46:45.877Z,2.40
2024-03-23T06:47:18.656Z,2.90
2024-03-23T06:47:51.334Z,2.70
2024-03-23T06:48:24.022Z,2.60
2024-03-23T06:48:56.693Z,2.40
2024-03-23T06:49:29.377Z,2.50
2024-03-23T06:50:02.078Z,2.70
2024-03-23T06:50:34.734Z,2.50
2024-03-23T06:51:07.427Z,2.40
2024-03-23T06:51:40.115Z,2.30
2024-03-23T06:52:12.782Z,2.40
2024-03-23T06:52:45.467Z,2.50
2024-03-23T06:53:18.173Z,2.60
2024-03-23T06:53:50.860Z,2.30
2024-03-23T06:54:23.666Z,2.60
2024-03-23T06:54:56.350Z,2.50
2024-03-23T06:55:29.042Z,2.30
2024-03-23T06:56:01.721Z,2.20
2024-03-23T06:56:34.405Z,2.00
2024-03-23T06:57:07.137Z,2.50
2024-03-23T06:57:39.791Z,2.40
2024-03-23T06:58:12.464Z,2.30
2024-03-23T06:58:45.155Z,2.50
2024-03-23T06:59:17.819Z,2.60
2024-03-23T06:59:50.486Z,2.40
2024-03-23T07:00:23.402Z,2.10
2024-03-23T07:00:56.069Z,2.30
2024-03-23T07:01:28.736Z,2.30
2024-03-23T07:02:01.428Z,2.30
2024-03-23T07:02:34.082Z,2.30
2024-03-23T07:03:06.762Z,2.40
2024-03-23T07:03:39.462Z,2.30
2024-03-23T07:04:12.121Z,2.50
2024-03-23T07:04:44.813Z,2.20
2024-03-23T07:05:17.475Z,2.80
2024-03-23T07:05:50.164Z,2.50
2024-03-23T07:06:25.077Z,2.50
2024-03-23T07:06:51.383Z,2.50
2024-03-23T07:07:24.056Z,2.70
2024-03-23T07:07:56.732Z,2.70
2024-03-23T07:08:29.520Z,2.70
2024-03-23T07:09:02.172Z,2.80
2024-03-23T07:09:34.855Z,3.00
2024-03-23T07:10:07.551Z,2.80
2024-03-23T07:10:40.234Z,2.90
2024-03-23T07:11:12.927Z,2.80
2024-03-23T07:11:45.644Z,2.80
2024-03-23T07:12:18.357Z,2.80
2024-03-23T07:12:51.029Z,2.20
2024-03-23T07:13:23.721Z,2.20
2024-03-23T07:13:56.393Z,2.30
2024-03-23T07:14:29.070Z,2.20